sensor_id;sensor_type;location;lat;lon;timestamp;pressure;altitude;pressure_sealevel;temperature;humidity
60061;BME280;45933;51.336;12.612;2023-02-15T00:01:47;101367.66;;;3.26;64.40
60061;BME280;45933;51.336;12.612;2023-02-15T00:04:14;101367.53;;;3.23;64.88
60061;BME280;45933;51.336;12.612;2023-02-15T00:06:39;101363.25;;;3.23;64.87
60061;BME280;45933;51.336;12.612;2023-02-15T00:09:05;101358.97;;;3.24;64.97
60061;BME280;45933;51.336;12.612;2023-02-15T00:11:31;101360.75;;;3.25;64.87
60061;BME280;45933;51.336;12.612;2023-02-15T00:14:07;101354.75;;;3.26;64.92
60061;BME280;45933;51.336;12.612;2023-02-15T00:16:33;101358.22;;;3.26;64.84
60061;BME280;45933;51.336;12.612;2023-02-15T00:18:59;101359.03;;;3.25;64.79
60061;BME280;45933;51.336;12.612;2023-02-15T00:21:28;101349.59;;;3.26;64.93
60061;BME280;45933;51.336;12.612;2023-02-15T00:23:55;101347.13;;;3.27;64.94
60061;BME280;45933;51.336;12.612;2023-02-15T00:26:24;101340.47;;;3.32;65.02
60061;BME280;45933;51.336;12.612;2023-02-15T00:28:49;101347.25;;;3.30;64.92
60061;BME280;45933;51.336;12.612;2023-02-15T00:31:15;101341.25;;;3.31;65.11
60061;BME280;45933;51.336;12.612;2023-02-15T00:33:43;101350.91;;;3.35;65.52
60061;BME280;45933;51.336;12.612;2023-02-15T00:36:09;101339.66;;;3.33;65.34
60061;BME280;45933;51.336;12.612;2023-02-15T00:38:38;101347.50;;;3.36;65.56
60061;BME280;45933;51.336;12.612;2023-02-15T00:41:05;101334.63;;;3.36;65.13
60061;BME280;45933;51.336;12.612;2023-02-15T00:43:34;101332.13;;;3.38;65.50
60061;BME280;45933;51.336;12.612;2023-02-15T00:46:03;101335.44;;;3.35;64.97
60061;BME280;45933;51.336;12.612;2023-02-15T00:48:29;101331.97;;;3.35;65.20
60061;BME280;45933;51.336;12.612;2023-02-15T00:50:56;101325.94;;;3.34;65.22
60061;BME280;45933;51.336;12.612;2023-02-15T00:53:23;101328.59;;;3.36;65.41
60061;BME280;45933;51.336;12.612;2023-02-15T00:55:48;101327.69;;;3.35;65.25
60061;BME280;45933;51.336;12.612;2023-02-15T00:58:14;101324.31;;;3.36;65.21
60061;BME280;45933;51.336;12.612;2023-02-15T01:00:42;101326.81;;;3.35;65.40
60061;BME280;45933;51.336;12.612;2023-02-15T01:03:08;101325.00;;;3.32;65.24
60061;BME280;45933;51.336;12.612;2023-02-15T01:05:34;101313.88;;;3.33;65.38
60061;BME280;45933;51.336;12.612;2023-02-15T01:07:59;101318.22;;;3.34;65.43
60061;BME280;45933;51.336;12.612;2023-02-15T01:10:26;101317.41;;;3.35;65.21
60061;BME280;45933;51.336;12.612;2023-02-15T01:12:52;101321.53;;;3.32;65.68
60061;BME280;45933;51.336;12.612;2023-02-15T01:15:18;101312.03;;;3.31;66.00
60061;BME280;45933;51.336;12.612;2023-02-15T01:17:43;101312.91;;;3.31;65.84
60061;BME280;45933;51.336;12.612;2023-02-15T01:20:14;101306.88;;;3.31;65.42
60061;BME280;45933;51.336;12.612;2023-02-15T01:22:40;101312.84;;;3.30;66.04
60061;BME280;45933;51.336;12.612;2023-02-15T01:25:05;101308.59;;;3.30;65.41
60061;BME280;45933;51.336;12.612;2023-02-15T01:27:31;101305.19;;;3.31;65.31
60061;BME280;45933;51.336;12.612;2023-02-15T01:29:56;101309.47;;;3.31;65.21
60061;BME280;45933;51.336;12.612;2023-02-15T01:32:22;101309.25;;;3.26;66.25
60061;BME280;45933;51.336;12.612;2023-02-15T01:34:47;101307.56;;;3.27;65.93
60061;BME280;45933;51.336;12.612;2023-02-15T01:37:12;101302.50;;;3.28;65.61
60061;BME280;45933;51.336;12.612;2023-02-15T01:39:38;101303.16;;;3.24;66.69
60061;BME280;45933;51.336;12.612;2023-02-15T01:42:03;101299.78;;;3.25;65.84
60061;BME280;45933;51.336;12.612;2023-02-15T01:44:49;101299.97;;;3.30;65.82
60061;BME280;45933;51.336;12.612;2023-02-15T01:47:18;101294.56;;;3.24;66.64
60061;BME280;45933;51.336;12.612;2023-02-15T01:49:46;101281.69;;;3.24;66.02
60061;BME280;45933;51.336;12.612;2023-02-15T01:52:14;101281.63;;;3.22;66.01
60061;BME280;45933;51.336;12.612;2023-02-15T01:54:41;101276.47;;;3.22;66.23
60061;BME280;45933;51.336;12.612;2023-02-15T01:57:16;101285.28;;;3.27;65.48
60061;BME280;45933;51.336;12.612;2023-02-15T01:59:46;101274.81;;;3.24;66.16
60061;BME280;45933;51.336;12.612;2023-02-15T02:02:14;101277.34;;;3.23;66.36
60061;BME280;45933;51.336;12.612;2023-02-15T02:04:47;101271.44;;;3.25;65.44
60061;BME280;45933;51.336;12.612;2023-02-15T02:07:15;101278.03;;;3.19;66.57
60061;BME280;45933;51.336;12.612;2023-02-15T02:09:42;101270.44;;;3.22;65.63
60061;BME280;45933;51.336;12.612;2023-02-15T02:12:08;101273.53;;;3.14;66.81
60061;BME280;45933;51.336;12.612;2023-02-15T02:14:35;101265.97;;;3.18;66.84
60061;BME280;45933;51.336;12.612;2023-02-15T02:17:25;101269.63;;;3.23;65.81
60061;BME280;45933;51.336;12.612;2023-02-15T02:20:17;101273.13;;;3.25;66.10
60061;BME280;45933;51.336;12.612;2023-02-15T02:23:07;101268.91;;;3.27;65.91
60061;BME280;45933;51.336;12.612;2023-02-15T02:25:55;101260.19;;;3.23;65.82
60061;BME280;45933;51.336;12.612;2023-02-15T02:31:41;101265.72;;;3.32;64.53
60061;BME280;45933;51.336;12.612;2023-02-15T02:34:16;101270.50;;;3.23;65.25
60061;BME280;45933;51.336;12.612;2023-02-15T02:36:55;101265.28;;;3.22;65.19
60061;BME280;45933;51.336;12.612;2023-02-15T02:39:23;101260.59;;;3.13;66.73
60061;BME280;45933;51.336;12.612;2023-02-15T02:42:14;101265.28;;;3.22;65.63
60061;BME280;45933;51.336;12.612;2023-02-15T02:44:48;101258.22;;;3.18;66.03
60061;BME280;45933;51.336;12.612;2023-02-15T02:47:51;101254.25;;;3.26;65.17
60061;BME280;45933;51.336;12.612;2023-02-15T02:50:22;101253.91;;;3.17;65.45
60061;BME280;45933;51.336;12.612;2023-02-15T02:52:50;101256.31;;;3.13;65.85
60061;BME280;45933;51.336;12.612;2023-02-15T02:55:25;101255.44;;;3.13;66.06
60061;BME280;45933;51.336;12.612;2023-02-15T02:58:04;101252.03;;;3.14;65.91
60061;BME280;45933;51.336;12.612;2023-02-15T03:00:34;101254.47;;;3.11;65.61
60061;BME280;45933;51.336;12.612;2023-02-15T03:03:05;101246.75;;;3.11;65.85
60061;BME280;45933;51.336;12.612;2023-02-15T03:05:34;101242.38;;;3.08;65.56
60061;BME280;45933;51.336;12.612;2023-02-15T03:08:03;101235.47;;;3.07;65.39
60061;BME280;45933;51.336;12.612;2023-02-15T03:10:32;101226.75;;;3.05;65.36
60061;BME280;45933;51.336;12.612;2023-02-15T03:12:59;101225.81;;;3.03;64.97
60061;BME280;45933;51.336;12.612;2023-02-15T03:15:29;101230.09;;;3.03;65.39
60061;BME280;45933;51.336;12.612;2023-02-15T03:18:17;101233.50;;;3.02;64.98
60061;BME280;45933;51.336;12.612;2023-02-15T03:20:46;101231.66;;;2.99;64.96
60061;BME280;45933;51.336;12.612;2023-02-15T03:23:17;101229.84;;;2.97;64.86
60061;BME280;45933;51.336;12.612;2023-02-15T03:26:00;101228.81;;;2.93;65.54
60061;BME280;45933;51.336;12.612;2023-02-15T03:28:35;101230.50;;;2.93;65.08
60061;BME280;45933;51.336;12.612;2023-02-15T03:31:04;101225.03;;;2.85;65.48
60061;BME280;45933;51.336;12.612;2023-02-15T03:33:31;101222.31;;;2.82;65.89
60061;BME280;45933;51.336;12.612;2023-02-15T03:36:06;101221.50;;;2.83;65.67
60061;BME280;45933;51.336;12.612;2023-02-15T03:39:15;101226.13;;;2.90;65.16
60061;BME280;45933;51.336;12.612;2023-02-15T03:44:25;101213.72;;;2.81;65.53
60061;BME280;45933;51.336;12.612;2023-02-15T03:46:59;101219.59;;;2.79;65.49
60061;BME280;45933;51.336;12.612;2023-02-15T03:49:36;101214.41;;;2.77;65.52
60061;BME280;45933;51.336;12.612;2023-02-15T03:52:04;101212.50;;;2.73;65.02
60061;BME280;45933;51.336;12.612;2023-02-15T03:54:33;101209.81;;;2.70;65.41
60061;BME280;45933;51.336;12.612;2023-02-15T03:57:18;101214.94;;;2.70;65.48
60061;BME280;45933;51.336;12.612;2023-02-15T04:03:09;101211.28;;;2.65;65.30
60061;BME280;45933;51.336;12.612;2023-02-15T04:05:36;101208.44;;;2.59;65.42
60061;BME280;45933;51.336;12.612;2023-02-15T04:08:01;101207.47;;;2.57;65.12
60061;BME280;45933;51.336;12.612;2023-02-15T04:10:27;101205.66;;;2.54;65.43
60061;BME280;45933;51.336;12.612;2023-02-15T04:13:11;101206.47;;;2.53;66.12
60061;BME280;45933;51.336;12.612;2023-02-15T04:15:36;101218.38;;;2.51;66.19
60061;BME280;45933;51.336;12.612;2023-02-15T04:18:20;101220.03;;;2.49;65.80
60061;BME280;45933;51.336;12.612;2023-02-15T04:20:46;101214.78;;;2.48;65.73
60061;BME280;45933;51.336;12.612;2023-02-15T04:23:31;101209.56;;;2.46;66.13
60061;BME280;45933;51.336;12.612;2023-02-15T04:26:15;101202.69;;;2.45;65.86
60061;BME280;45933;51.336;12.612;2023-02-15T04:28:41;101206.00;;;2.43;66.63
60061;BME280;45933;51.336;12.612;2023-02-15T04:31:06;101207.75;;;2.44;66.65
60061;BME280;45933;51.336;12.612;2023-02-15T04:33:32;101207.66;;;2.42;66.72
60061;BME280;45933;51.336;12.612;2023-02-15T04:35:57;101206.88;;;2.43;66.39
60061;BME280;45933;51.336;12.612;2023-02-15T04:38:22;101211.16;;;2.43;66.23
60061;BME280;45933;51.336;12.612;2023-02-15T04:40:52;101204.31;;;2.43;66.65
60061;BME280;45933;51.336;12.612;2023-02-15T04:43:18;101207.41;;;2.36;67.23
60061;BME280;45933;51.336;12.612;2023-02-15T04:45:48;101200.56;;;2.36;67.22
60061;BME280;45933;51.336;12.612;2023-02-15T04:48:15;101201.44;;;2.37;66.93
60061;BME280;45933;51.336;12.612;2023-02-15T04:50:41;101191.97;;;2.36;66.80
60061;BME280;45933;51.336;12.612;2023-02-15T04:53:06;101196.22;;;2.35;66.54
60061;BME280;45933;51.336;12.612;2023-02-15T04:55:31;101185.81;;;2.32;67.08
60061;BME280;45933;51.336;12.612;2023-02-15T04:57:56;101182.44;;;2.33;66.97
60061;BME280;45933;51.336;12.612;2023-02-15T05:00:22;101189.06;;;2.28;67.30
60061;BME280;45933;51.336;12.612;2023-02-15T05:02:47;101182.28;;;2.30;66.52
60061;BME280;45933;51.336;12.612;2023-02-15T05:05:12;101184.84;;;2.30;67.02
60061;BME280;45933;51.336;12.612;2023-02-15T05:07:40;101180.50;;;2.29;66.62
60061;BME280;45933;51.336;12.612;2023-02-15T05:10:05;101174.56;;;2.30;66.43
60061;BME280;45933;51.336;12.612;2023-02-15T05:12:31;101172.59;;;2.25;66.42
60061;BME280;45933;51.336;12.612;2023-02-15T05:14:56;101165.69;;;2.24;66.73
60061;BME280;45933;51.336;12.612;2023-02-15T05:17:21;101164.00;;;2.24;66.54
60061;BME280;45933;51.336;12.612;2023-02-15T05:19:47;101159.72;;;2.25;66.02
60061;BME280;45933;51.336;12.612;2023-02-15T05:22:12;101159.50;;;2.20;66.83
60061;BME280;45933;51.336;12.612;2023-02-15T05:24:37;101164.59;;;2.19;66.72
60061;BME280;45933;51.336;12.612;2023-02-15T05:27:21;101161.09;;;2.17;66.08
60061;BME280;45933;51.336;12.612;2023-02-15T05:30:05;101158.34;;;2.14;66.66
60061;BME280;45933;51.336;12.612;2023-02-15T05:32:36;101154.97;;;2.15;66.53
60061;BME280;45933;51.336;12.612;2023-02-15T05:35:01;101153.06;;;2.10;66.56
60061;BME280;45933;51.336;12.612;2023-02-15T05:37:27;101156.41;;;2.08;66.94
60061;BME280;45933;51.336;12.612;2023-02-15T05:39:52;101152.06;;;2.07;66.31
60061;BME280;45933;51.336;12.612;2023-02-15T05:42:17;101150.22;;;2.04;66.49
60061;BME280;45933;51.336;12.612;2023-02-15T05:44:42;101151.78;;;2.01;66.79
60061;BME280;45933;51.336;12.612;2023-02-15T05:47:08;101155.16;;;2.00;65.82
60061;BME280;45933;51.336;12.612;2023-02-15T05:49:33;101163.63;;;1.97;66.69
60061;BME280;45933;51.336;12.612;2023-02-15T05:51:59;101155.03;;;1.97;66.47
60061;BME280;45933;51.336;12.612;2023-02-15T05:54:24;101158.19;;;1.91;67.05
60061;BME280;45933;51.336;12.612;2023-02-15T05:56:49;101160.00;;;1.94;65.82
60061;BME280;45933;51.336;12.612;2023-02-15T05:59:15;101157.22;;;1.89;67.17
60061;BME280;45933;51.336;12.612;2023-02-15T06:01:40;101152.06;;;1.89;65.71
60061;BME280;45933;51.336;12.612;2023-02-15T06:04:05;101158.91;;;1.89;66.87
60061;BME280;45933;51.336;12.612;2023-02-15T06:06:30;101162.16;;;1.84;66.85
60061;BME280;45933;51.336;12.612;2023-02-15T06:08:56;101165.53;;;1.83;66.65
60061;BME280;45933;51.336;12.612;2023-02-15T06:11:21;101158.69;;;1.84;66.13
60061;BME280;45933;51.336;12.612;2023-02-15T06:13:46;101169.75;;;1.81;67.00
60061;BME280;45933;51.336;12.612;2023-02-15T06:16:12;101167.88;;;1.79;66.87
60061;BME280;45933;51.336;12.612;2023-02-15T06:18:37;101167.00;;;1.78;66.92
60061;BME280;45933;51.336;12.612;2023-02-15T06:21:02;101169.66;;;1.80;66.01
60061;BME280;45933;51.336;12.612;2023-02-15T06:23:28;101168.69;;;1.78;66.40
60061;BME280;45933;51.336;12.612;2023-02-15T06:25:53;101171.88;;;1.72;66.15
60061;BME280;45933;51.336;12.612;2023-02-15T06:28:18;101164.81;;;1.68;66.88
60061;BME280;45933;51.336;12.612;2023-02-15T06:30:44;101159.66;;;1.68;67.46
60061;BME280;45933;51.336;12.612;2023-02-15T06:33:09;101159.75;;;1.70;66.67
60061;BME280;45933;51.336;12.612;2023-02-15T06:35:34;101159.66;;;1.68;66.70
60061;BME280;45933;51.336;12.612;2023-02-15T06:38:00;101164.03;;;1.69;66.17
60061;BME280;45933;51.336;12.612;2023-02-15T06:40:25;101154.53;;;1.68;66.64
60061;BME280;45933;51.336;12.612;2023-02-15T06:42:50;101157.03;;;1.67;66.87
60061;BME280;45933;51.336;12.612;2023-02-15T06:45:15;101157.25;;;1.71;65.74
60061;BME280;45933;51.336;12.612;2023-02-15T06:47:41;101157.91;;;1.67;66.55
60061;BME280;45933;51.336;12.612;2023-02-15T06:50:07;101160.47;;;1.67;66.91
60061;BME280;45933;51.336;12.612;2023-02-15T06:52:33;101162.59;;;1.58;67.85
60061;BME280;45933;51.336;12.612;2023-02-15T06:54:58;101165.63;;;1.67;67.36
60061;BME280;45933;51.336;12.612;2023-02-15T06:57:24;101162.25;;;1.68;66.72
60061;BME280;45933;51.336;12.612;2023-02-15T06:59:49;101164.69;;;1.65;67.23
60061;BME280;45933;51.336;12.612;2023-02-15T07:02:14;101167.38;;;1.68;67.08
60061;BME280;45933;51.336;12.612;2023-02-15T07:04:40;101169.94;;;1.68;66.99
60061;BME280;45933;51.336;12.612;2023-02-15T07:07:08;101164.03;;;1.69;67.40
60061;BME280;45933;51.336;12.612;2023-02-15T07:09:34;101163.34;;;1.73;67.43
60061;BME280;45933;51.336;12.612;2023-02-15T07:11:59;101168.47;;;1.73;67.22
60061;BME280;45933;51.336;12.612;2023-02-15T07:14:43;101167.88;;;1.79;67.37
60061;BME280;45933;51.336;12.612;2023-02-15T07:17:08;101162.03;;;1.81;67.25
60061;BME280;45933;51.336;12.612;2023-02-15T07:19:34;101154.44;;;1.84;67.23
60061;BME280;45933;51.336;12.612;2023-02-15T07:21:59;101153.06;;;1.91;66.76
60061;BME280;45933;51.336;12.612;2023-02-15T07:24:25;101149.88;;;1.97;66.18
60061;BME280;45933;51.336;12.612;2023-02-15T07:26:50;101145.63;;;1.97;66.85
60061;BME280;45933;51.336;12.612;2023-02-15T07:29:15;101149.22;;;2.01;66.77
60061;BME280;45933;51.336;12.612;2023-02-15T07:31:41;101147.44;;;2.00;67.29
60061;BME280;45933;51.336;12.612;2023-02-15T07:34:10;101146.91;;;2.07;66.93
60061;BME280;45933;51.336;12.612;2023-02-15T07:36:35;101129.84;;;2.09;67.17
60061;BME280;45933;51.336;12.612;2023-02-15T07:39:01;101137.34;;;2.04;67.42
60061;BME280;45933;51.336;12.612;2023-02-15T07:41:26;101130.41;;;2.21;66.58
60061;BME280;45933;51.336;12.612;2023-02-15T07:43:51;101128.31;;;2.13;67.40
60061;BME280;45933;51.336;12.612;2023-02-15T07:46:17;101123.84;;;2.08;67.55
60061;BME280;45933;51.336;12.612;2023-02-15T07:48:43;101130.28;;;2.18;67.72
60061;BME280;45933;51.336;12.612;2023-02-15T07:51:10;101127.56;;;2.15;67.60
60061;BME280;45933;51.336;12.612;2023-02-15T07:53:36;101114.56;;;2.31;67.06
60061;BME280;45933;51.336;12.612;2023-02-15T07:56:05;101127.31;;;2.28;67.18
60061;BME280;45933;51.336;12.612;2023-02-15T07:58:31;101115.84;;;2.41;66.76
60061;BME280;45933;51.336;12.612;2023-02-15T08:01:17;101118.06;;;2.53;66.32
60061;BME280;45933;51.336;12.612;2023-02-15T08:03:42;101114.59;;;2.52;66.18
60061;BME280;45933;51.336;12.612;2023-02-15T08:06:08;101108.50;;;2.70;65.67
60061;BME280;45933;51.336;12.612;2023-02-15T08:08:34;101107.69;;;2.71;65.89
60061;BME280;45933;51.336;12.612;2023-02-15T08:11:06;101097.03;;;2.82;65.94
60061;BME280;45933;51.336;12.612;2023-02-15T08:13:52;101093.09;;;2.91;65.72
60061;BME280;45933;51.336;12.612;2023-02-15T08:16:36;101095.34;;;3.04;65.40
60061;BME280;45933;51.336;12.612;2023-02-15T08:21:44;101085.38;;;3.34;65.49
60061;BME280;45933;51.336;12.612;2023-02-15T08:24:12;101091.75;;;3.64;65.38
60061;BME280;45933;51.336;12.612;2023-02-15T08:26:38;101084.78;;;4.08;64.66
60061;BME280;45933;51.336;12.612;2023-02-15T08:29:04;101080.88;;;4.69;63.41
60061;BME280;45933;51.336;12.612;2023-02-15T08:31:30;101079.59;;;5.34;62.29
60061;BME280;45933;51.336;12.612;2023-02-15T08:33:56;101084.00;;;5.94;59.06
60061;BME280;45933;51.336;12.612;2023-02-15T08:36:24;101070.22;;;6.57;58.76
60061;BME280;45933;51.336;12.612;2023-02-15T08:38:50;101077.03;;;7.22;56.97
60061;BME280;45933;51.336;12.612;2023-02-15T08:41:19;101063.84;;;7.90;57.30
60061;BME280;45933;51.336;12.612;2023-02-15T08:43:52;101068.66;;;8.56;55.74
60061;BME280;45933;51.336;12.612;2023-02-15T08:46:19;101060.13;;;9.16;54.49
60061;BME280;45933;51.336;12.612;2023-02-15T08:48:45;101059.28;;;9.77;52.69
60061;BME280;45933;51.336;12.612;2023-02-15T08:51:16;101053.94;;;10.34;50.08
60061;BME280;45933;51.336;12.612;2023-02-15T08:53:45;101053.59;;;10.90;49.65
60061;BME280;45933;51.336;12.612;2023-02-15T08:56:11;101044.38;;;11.34;48.46
60061;BME280;45933;51.336;12.612;2023-02-15T08:58:40;101035.03;;;11.75;45.37
60061;BME280;45933;51.336;12.612;2023-02-15T09:04:00;101035.31;;;12.50;43.88
60061;BME280;45933;51.336;12.612;2023-02-15T09:06:26;101040.56;;;12.81;43.56
60061;BME280;45933;51.336;12.612;2023-02-15T09:08:53;101034.50;;;13.25;44.79
60061;BME280;45933;51.336;12.612;2023-02-15T09:11:24;101025.66;;;13.69;45.13
60061;BME280;45933;51.336;12.612;2023-02-15T09:14:01;101017.69;;;13.98;44.44
60061;BME280;45933;51.336;12.612;2023-02-15T09:16:29;101025.50;;;14.08;40.35
60061;BME280;45933;51.336;12.612;2023-02-15T09:18:56;101028.75;;;14.52;42.80
60061;BME280;45933;51.336;12.612;2023-02-15T09:21:33;101018.03;;;14.81;41.22
60061;BME280;45933;51.336;12.612;2023-02-15T09:24:05;101018.63;;;15.12;40.70
60061;BME280;45933;51.336;12.612;2023-02-15T09:26:32;101018.38;;;15.38;40.68
60061;BME280;45933;51.336;12.612;2023-02-15T09:29:03;101022.38;;;15.76;38.92
60061;BME280;45933;51.336;12.612;2023-02-15T09:31:31;101016.13;;;15.86;38.39
60061;BME280;45933;51.336;12.612;2023-02-15T09:33:58;101019.16;;;16.21;37.85
60061;BME280;45933;51.336;12.612;2023-02-15T09:36:34;101012.63;;;16.48;37.75
60061;BME280;45933;51.336;12.612;2023-02-15T09:39:22;101009.69;;;16.71;36.58
60061;BME280;45933;51.336;12.612;2023-02-15T09:42:16;101010.50;;;17.26;40.28
60061;BME280;45933;51.336;12.612;2023-02-15T09:52:50;101008.66;;;17.76;36.62
60061;BME280;45933;51.336;12.612;2023-02-15T10:04:18;101016.56;;;18.19;33.50
60061;BME280;45933;51.336;12.612;2023-02-15T10:12:36;100994.84;;;18.83;32.61
60061;BME280;45933;51.336;12.612;2023-02-15T10:15:24;100999.50;;;18.73;32.02
60061;BME280;45933;51.336;12.612;2023-02-15T10:18:16;100998.44;;;19.14;33.16
60061;BME280;45933;51.336;12.612;2023-02-15T10:21:07;100992.19;;;19.17;31.94
60061;BME280;45933;51.336;12.612;2023-02-15T10:23:58;100993.09;;;19.48;32.86
60061;BME280;45933;51.336;12.612;2023-02-15T10:26:44;100997.00;;;19.68;32.79
60061;BME280;45933;51.336;12.612;2023-02-15T10:31:45;100997.50;;;19.80;30.75
60061;BME280;45933;51.336;12.612;2023-02-15T10:34:50;100996.25;;;20.22;33.07
60061;BME280;45933;51.336;12.612;2023-02-15T10:40:22;100981.28;;;20.21;31.09
60061;BME280;45933;51.336;12.612;2023-02-15T10:48:36;100972.06;;;20.62;30.80
60061;BME280;45933;51.336;12.612;2023-02-15T10:54:51;100966.75;;;21.13;29.55
60061;BME280;45933;51.336;12.612;2023-02-15T11:00:07;100955.28;;;21.38;28.92
60061;BME280;45933;51.336;12.612;2023-02-15T11:02:53;100961.69;;;21.56;30.11
60061;BME280;45933;51.336;12.612;2023-02-15T11:07:57;100942.03;;;21.85;27.09
60061;BME280;45933;51.336;12.612;2023-02-15T11:10:38;100936.19;;;22.22;28.40
60061;BME280;45933;51.336;12.612;2023-02-15T11:13:16;100935.63;;;22.36;27.99
60061;BME280;45933;51.336;12.612;2023-02-15T11:15:49;100930.72;;;22.47;27.70
60061;BME280;45933;51.336;12.612;2023-02-15T11:20:55;100927.00;;;22.93;27.00
60061;BME280;45933;51.336;12.612;2023-02-15T11:23:21;100920.69;;;23.16;26.78
60061;BME280;45933;51.336;12.612;2023-02-15T11:25:56;100913.38;;;23.40;26.92
60061;BME280;45933;51.336;12.612;2023-02-15T11:28:30;100906.38;;;23.58;26.46
60061;BME280;45933;51.336;12.612;2023-02-15T11:30:58;100907.22;;;23.59;25.19
60061;BME280;45933;51.336;12.612;2023-02-15T11:33:29;100903.66;;;23.79;25.18
60061;BME280;45933;51.336;12.612;2023-02-15T11:36:27;100901.38;;;24.26;27.26
60061;BME280;45933;51.336;12.612;2023-02-15T11:39:07;100892.03;;;24.35;25.37
60061;BME280;45933;51.336;12.612;2023-02-15T11:41:37;100889.38;;;24.35;23.41
60061;BME280;45933;51.336;12.612;2023-02-15T11:44:14;100889.50;;;24.50;25.33
60061;BME280;45933;51.336;12.612;2023-02-15T11:46:41;100897.81;;;24.62;24.15
60061;BME280;45933;51.336;12.612;2023-02-15T11:49:21;100892.50;;;24.79;23.71
60061;BME280;45933;51.336;12.612;2023-02-15T11:51:47;100894.84;;;24.68;23.34
60061;BME280;45933;51.336;12.612;2023-02-15T11:54:17;100900.41;;;24.63;22.84
60061;BME280;45933;51.336;12.612;2023-02-15T11:56:42;100896.31;;;24.39;22.91
60061;BME280;45933;51.336;12.612;2023-02-15T11:59:15;100890.75;;;24.43;23.31
60061;BME280;45933;51.336;12.612;2023-02-15T12:01:45;100891.25;;;24.33;23.96
60061;BME280;45933;51.336;12.612;2023-02-15T12:04:28;100885.13;;;24.31;23.25
60061;BME280;45933;51.336;12.612;2023-02-15T12:07:28;100886.69;;;24.36;24.88
60061;BME280;45933;51.336;12.612;2023-02-15T12:10:20;100877.31;;;24.27;25.11
60061;BME280;45933;51.336;12.612;2023-02-15T12:12:47;100873.56;;;23.95;23.93
60061;BME280;45933;51.336;12.612;2023-02-15T12:15:13;100878.03;;;23.76;23.69
60061;BME280;45933;51.336;12.612;2023-02-15T12:17:41;100869.06;;;23.79;23.87
60061;BME280;45933;51.336;12.612;2023-02-15T12:22:38;100873.25;;;24.02;23.55
60061;BME280;45933;51.336;12.612;2023-02-15T12:25:29;100872.13;;;24.24;23.31
60061;BME280;45933;51.336;12.612;2023-02-15T12:27:55;100866.63;;;24.10;22.42
60061;BME280;45933;51.336;12.612;2023-02-15T12:30:32;100867.97;;;24.19;22.57
60061;BME280;45933;51.336;12.612;2023-02-15T12:35:33;100866.28;;;23.99;22.36
60061;BME280;45933;51.336;12.612;2023-02-15T12:38:24;100866.09;;;24.21;22.91
60061;BME280;45933;51.336;12.612;2023-02-15T12:40:58;100860.56;;;24.25;23.13
60061;BME280;45933;51.336;12.612;2023-02-15T12:43:33;100864.53;;;24.34;24.30
60061;BME280;45933;51.336;12.612;2023-02-15T12:46:24;100856.75;;;24.48;23.96
60061;BME280;45933;51.336;12.612;2023-02-15T12:49:22;100859.41;;;24.99;24.59
60061;BME280;45933;51.336;12.612;2023-02-15T12:52:40;100860.56;;;24.77;22.69
60061;BME280;45933;51.336;12.612;2023-02-15T12:54:42;100854.66;;;24.88;21.98
60061;BME280;45933;51.336;12.612;2023-02-15T12:57:32;100853.84;;;25.21;22.81
60061;BME280;45933;51.336;12.612;2023-02-15T13:00:04;100854.28;;;25.29;22.20
60061;BME280;45933;51.336;12.612;2023-02-15T13:02:51;100853.53;;;25.43;21.92
60061;BME280;45933;51.336;12.612;2023-02-15T13:08:15;100845.97;;;25.83;22.82
60061;BME280;45933;51.336;12.612;2023-02-15T13:13:31;100830.63;;;25.70;21.25
60061;BME280;45933;51.336;12.612;2023-02-15T13:16:12;100837.09;;;25.98;22.00
60061;BME280;45933;51.336;12.612;2023-02-15T13:18:44;100825.66;;;25.96;21.22
60061;BME280;45933;51.336;12.612;2023-02-15T13:23:37;100829.59;;;25.89;20.49
60061;BME280;45933;51.336;12.612;2023-02-15T13:26:11;100829.28;;;25.79;19.98
60061;BME280;45933;51.336;12.612;2023-02-15T13:28:42;100817.53;;;25.66;20.75
60061;BME280;45933;51.336;12.612;2023-02-15T13:31:13;100811.34;;;25.81;21.01
60061;BME280;45933;51.336;12.612;2023-02-15T13:33:43;100806.94;;;25.64;19.95
60061;BME280;45933;51.336;12.612;2023-02-15T13:36:29;100808.16;;;25.90;21.13
60061;BME280;45933;51.336;12.612;2023-02-15T13:39:18;100800.66;;;25.97;21.71
60061;BME280;45933;51.336;12.612;2023-02-15T13:41:55;100799.78;;;25.96;21.49
60061;BME280;45933;51.336;12.612;2023-02-15T13:50:02;100798.19;;;26.38;20.60
60061;BME280;45933;51.336;12.612;2023-02-15T13:52:41;100801.91;;;26.66;21.18
60061;BME280;45933;51.336;12.612;2023-02-15T13:58:04;100795.63;;;26.95;20.03
60061;BME280;45933;51.336;12.612;2023-02-15T14:03:40;100802.69;;;26.96;19.83
60061;BME280;45933;51.336;12.612;2023-02-15T14:06:28;100801.81;;;27.10;20.96
60061;BME280;45933;51.336;12.612;2023-02-15T14:09:14;100800.69;;;26.85;20.36
60061;BME280;45933;51.336;12.612;2023-02-15T14:17:50;100792.19;;;26.79;20.75
60061;BME280;45933;51.336;12.612;2023-02-15T14:23:04;100788.47;;;26.37;19.59
60061;BME280;45933;51.336;12.612;2023-02-15T14:25:49;100784.72;;;26.40;20.19
60061;BME280;45933;51.336;12.612;2023-02-15T14:28:21;100790.03;;;26.25;19.44
60061;BME280;45933;51.336;12.612;2023-02-15T14:30:54;100789.63;;;25.87;19.52
60061;BME280;45933;51.336;12.612;2023-02-15T14:33:39;100783.75;;;25.96;20.80
60061;BME280;45933;51.336;12.612;2023-02-15T14:36:07;100786.34;;;25.66;20.25
60061;BME280;45933;51.336;12.612;2023-02-15T14:38:44;100786.72;;;25.60;20.09
60061;BME280;45933;51.336;12.612;2023-02-15T14:41:44;100791.34;;;25.56;21.12
60061;BME280;45933;51.336;12.612;2023-02-15T14:44:34;100789.97;;;25.18;20.50